Time;durP1;ratioP1;P1;durP2;ratioP2;P2;SDS_P1;SDS_P2;PMS_P1;PMS_P2;Temp;Humidity;BMP_temperature;BMP_pressure;BME280_temperature;BME280_humidity;BME280_pressure;Samples;Min_cycle;Max_cycle;Signal;HPM_P1;HPM_P2
2022/08/19 00:01:54;;;;;;;22.10;20.53;;;22.90;30.10;;;;;;5069920;27;20785;-76
2022/08/19 00:04:24;;;;;;;20.37;18.97;;;23.00;30.00;;;;;;5070167;28;20417;-76
2022/08/19 00:06:50;;;;;;;23.30;21.60;;;22.90;30.20;;;;;;5070544;28;20415;-75
2022/08/19 00:09:18;;;;;;;19.83;18.63;;;22.90;30.00;;;;;;5070063;28;20477;-76
2022/08/19 00:11:45;;;;;;;22.53;20.77;;;22.90;29.90;;;;;;5069887;28;20781;-77
2022/08/19 00:14:14;;;;;;;23.07;21.20;;;22.90;30.10;;;;;;5070207;28;20462;-76
2022/08/19 00:16:42;;;;;;;20.63;19.20;;;22.90;30.30;;;;;;5069942;28;20962;-76
2022/08/19 00:19:09;;;;;;;20.00;18.60;;;22.90;30.10;;;;;;5069997;28;20412;-76
2022/08/19 00:21:39;;;;;;;22.13;20.43;;;22.90;30.00;;;;;;5069672;28;20454;-75
2022/08/19 00:24:05;;;;;;;21.93;20.40;;;22.90;30.00;;;;;;5069960;28;20417;-77
2022/08/19 00:26:31;;;;;;;21.80;19.90;;;22.80;30.30;;;;;;5069718;28;20547;-78
2022/08/19 00:28:57;;;;;;;22.93;21.30;;;22.90;30.20;;;;;;5069774;27;20504;-77
2022/08/19 00:31:22;;;;;;;20.20;18.80;;;22.90;30.00;;;;;;5069555;27;20184;-77
2022/08/19 00:33:50;;;;;;;23.47;21.53;;;22.90;30.00;;;;;;5069734;27;20553;-77
2022/08/19 00:36:16;;;;;;;21.77;20.20;;;22.90;30.00;;;;;;5069386;28;20207;-77
2022/08/19 00:38:42;;;;;;;23.60;21.80;;;22.90;30.20;;;;;;5069562;27;20517;-78
2022/08/19 00:41:17;;;;;;;23.37;21.53;;;22.70;30.70;;;;;;5069360;28;20171;-77
2022/08/19 00:43:42;;;;;;;22.03;20.43;;;22.70;31.40;;;;;;5069522;28;20902;-77
2022/08/19 00:46:08;;;;;;;21.17;19.60;;;22.60;30.60;;;;;;5069510;28;20441;-76
2022/08/19 00:48:35;;;;;;;22.13;20.60;;;22.60;30.70;;;;;;5069365;28;20252;-78
2022/08/19 00:51:01;;;;;;;21.63;20.00;;;22.60;30.80;;;;;;5069296;28;20452;-76
2022/08/19 00:53:29;;;;;;;22.83;20.57;;;22.70;30.60;;;;;;5069384;28;20417;-77
2022/08/19 00:55:57;;;;;;;22.00;20.10;;;22.60;31.10;;;;;;5069306;28;20560;-77
2022/08/19 00:58:28;;;;;;;22.23;20.57;;;22.70;30.90;;;;;;5069262;28;20406;-77
2022/08/19 01:00:54;;;;;;;20.80;19.40;;;22.70;30.50;;;;;;5069004;27;20429;-77
2022/08/19 01:03:21;;;;;;;22.57;20.87;;;22.70;30.80;;;;;;5069335;28;20782;-76
2022/08/19 01:05:49;;;;;;;21.77;20.23;;;22.80;30.70;;;;;;5069180;28;20290;-77
2022/08/19 01:08:16;;;;;;;22.53;20.73;;;22.80;30.50;;;;;;5069205;28;20438;-77
2022/08/19 01:10:50;;;;;;;21.07;19.60;;;22.80;30.50;;;;;;5068782;28;20409;-78
2022/08/19 01:13:20;;;;;;;22.47;20.77;;;22.80;30.50;;;;;;5067845;27;20418;-77
2022/08/19 01:15:51;;;;;;;22.87;21.07;;;22.80;30.50;;;;;;5067825;27;20485;-76
2022/08/19 01:18:19;;;;;;;21.43;20.03;;;22.80;30.50;;;;;;5069153;28;20412;-78
2022/08/19 01:20:45;;;;;;;22.77;21.07;;;22.80;30.50;;;;;;5068881;28;20410;-76
2022/08/19 01:23:11;;;;;;;21.93;20.33;;;22.80;30.50;;;;;;5069316;28;20906;-75
2022/08/19 01:25:43;;;;;;;22.57;20.87;;;22.80;30.60;;;;;;5068853;28;20433;-76
2022/08/19 01:28:15;;;;;;;21.60;20.13;;;22.70;30.60;;;;;;5067770;27;20422;-77
2022/08/19 01:30:43;;;;;;;23.83;22.10;;;22.80;30.60;;;;;;5068803;28;20448;-77
2022/08/19 01:33:09;;;;;;;23.30;21.70;;;22.80;30.50;;;;;;5067555;27;20766;-77
2022/08/19 01:35:35;;;;;;;21.17;19.77;;;22.80;30.70;;;;;;5068759;28;20564;-75
2022/08/19 01:38:09;;;;;;;23.00;21.40;;;22.70;30.80;;;;;;5068793;28;20164;-77
2022/08/19 01:40:40;;;;;;;22.67;21.07;;;22.70;30.80;;;;;;5068506;28;20421;-78
2022/08/19 01:43:06;;;;;;;23.20;21.50;;;22.70;30.80;;;;;;5068752;28;20465;-76
2022/08/19 01:45:33;;;;;;;22.27;20.67;;;22.70;31.30;;;;;;5068562;28;20433;-76
2022/08/19 01:48:00;;;;;;;22.10;20.37;;;22.70;31.20;;;;;;5067466;27;20449;-76
2022/08/19 01:50:26;;;;;;;22.73;21.20;;;22.70;31.10;;;;;;5067065;27;20927;-78
2022/08/19 01:52:52;;;;;;;23.17;21.47;;;22.70;31.20;;;;;;5068636;28;20420;-77
2022/08/19 01:55:20;;;;;;;22.47;20.93;;;22.70;31.20;;;;;;5068233;28;20472;-76
2022/08/19 01:57:56;;;;;;;22.33;20.90;;;22.70;31.30;;;;;;5068596;28;20406;-77
2022/08/19 02:00:25;;;;;;;22.60;21.10;;;22.70;31.30;;;;;;5068184;28;20406;-78
2022/08/19 02:02:51;;;;;;;24.40;22.63;;;22.70;31.30;;;;;;5068494;28;20421;-75
2022/08/19 02:05:18;;;;;;;23.63;22.03;;;22.70;31.40;;;;;;5068519;27;20430;-76
2022/08/19 02:07:44;;;;;;;23.80;22.00;;;22.70;31.60;;;;;;5068371;28;20171;-76
2022/08/19 02:10:14;;;;;;;24.27;21.97;;;22.60;32.20;;;;;;5068266;28;20493;-76
2022/08/19 02:12:40;;;;;;;24.53;22.43;;;22.60;32.10;;;;;;5068358;28;20408;-76
2022/08/19 02:15:07;;;;;;;24.13;22.50;;;22.50;32.00;;;;;;5068371;28;20458;-77
2022/08/19 02:17:33;;;;;;;25.80;23.90;;;22.50;32.80;;;;;;5068183;28;20164;-77
2022/08/19 02:19:58;;;;;;;23.00;21.40;;;22.60;32.20;;;;;;5067942;27;20413;-77
2022/08/19 02:22:25;;;;;;;24.07;22.30;;;22.60;32.20;;;;;;5069496;27;20587;-75
2022/08/19 02:24:54;;;;;;;24.70;22.83;;;22.50;32.00;;;;;;5071695;28;20191;-77
2022/08/19 02:27:21;;;;;;;24.53;22.67;;;22.50;32.00;;;;;;5071591;28;20413;-76
2022/08/19 02:29:48;;;;;;;24.80;23.13;;;22.40;32.00;;;;;;5071718;28;20480;-76
2022/08/19 02:32:14;;;;;;;27.00;24.90;;;22.50;32.00;;;;;;5074788;28;20458;-79
2022/08/19 02:34:40;;;;;;;25.00;22.77;;;22.40;32.50;;;;;;5080390;28;20769;-79
2022/08/19 02:38:24;;;;;;;24.13;22.30;;;22.40;32.00;;;;;;5080640;27;20585;-79
2022/08/19 02:39:52;;;;;;;25.27;23.47;;;22.50;32.10;;;;;;5080031;28;20184;-76
2022/08/19 02:42:17;;;;;;;26.30;24.20;;;22.50;32.20;;;;;;5078204;27;20424;-79
2022/08/19 02:44:43;;;;;;;25.47;23.43;;;22.50;32.10;;;;;;5078744;27;20171;-77
2022/08/19 02:47:09;;;;;;;25.70;23.60;;;22.50;32.30;;;;;;5079179;27;20182;-79
2022/08/19 02:49:35;;;;;;;25.47;23.47;;;22.50;32.40;;;;;;5078214;28;20181;-77
2022/08/19 02:52:01;;;;;;;26.07;24.07;;;22.40;32.60;;;;;;5078677;27;20481;-77
2022/08/19 02:54:27;;;;;;;26.43;24.43;;;22.50;32.50;;;;;;5078562;28;20187;-79
2022/08/19 02:56:53;;;;;;;26.77;24.57;;;22.40;32.70;;;;;;5078309;28;20286;-79
2022/08/19 02:59:18;;;;;;;26.87;24.70;;;22.30;33.00;;;;;;5079237;27;20450;-79
2022/08/19 03:01:45;;;;;;;25.70;23.80;;;22.30;33.10;;;;;;5078889;27;20254;-78
2022/08/19 03:04:14;;;;;;;25.20;23.20;;;22.30;33.20;;;;;;5078467;27;20183;-78
2022/08/19 03:06:43;;;;;;;26.03;23.70;;;22.30;33.10;;;;;;5079618;28;20434;-77
2022/08/19 03:09:09;;;;;;;26.80;24.70;;;22.30;33.40;;;;;;5078855;28;20454;-78
2022/08/19 03:11:35;;;;;;;29.57;26.80;;;22.30;33.60;;;;;;5076828;27;20418;-77
2022/08/19 03:14:01;;;;;;;28.00;25.77;;;22.20;33.80;;;;;;5074270;27;20413;-79
2022/08/19 03:16:28;;;;;;;27.70;25.40;;;22.10;34.70;;;;;;5071563;27;20578;-78
2022/08/19 03:18:58;;;;;;;26.17;24.17;;;22.10;34.90;;;;;;5071070;27;20834;-76
2022/08/19 03:21:26;;;;;;;27.80;25.60;;;22.00;35.50;;;;;;5071520;28;20441;-77
2022/08/19 03:23:58;;;;;;;27.00;24.83;;;22.00;35.20;;;;;;5071341;28;20422;-76
2022/08/19 03:26:23;;;;;;;27.40;25.30;;;22.00;35.60;;;;;;5071781;28;20439;-78
2022/08/19 03:28:49;;;;;;;27.40;25.17;;;22.10;35.70;;;;;;5078552;27;20508;-79
2022/08/19 03:31:18;;;;;;;26.43;24.40;;;22.10;35.50;;;;;;5079696;28;20191;-78
2022/08/19 03:33:45;;;;;;;27.83;25.67;;;22.10;35.30;;;;;;5080501;28;20417;-79
2022/08/19 03:36:17;;;;;;;28.77;26.60;;;22.10;36.50;;;;;;5079777;27;20477;-78
2022/08/19 03:38:46;;;;;;;27.57;25.27;;;22.10;35.70;;;;;;5079931;28;20418;-77
2022/08/19 03:41:15;;;;;;;28.23;26.03;;;22.10;36.00;;;;;;5079684;28;20485;-79
2022/08/19 03:43:41;;;;;;;28.77;26.53;;;22.10;35.80;;;;;;5080138;28;20457;-77
2022/08/19 03:46:10;;;;;;;29.90;27.30;;;22.10;35.80;;;;;;5080373;28;21026;-79
2022/08/19 03:48:38;;;;;;;26.77;24.90;;;22.10;35.70;;;;;;5081982;28;20553;-79
2022/08/19 03:51:04;;;;;;;28.40;26.27;;;22.10;35.60;;;;;;5083150;28;20413;-77
2022/08/19 03:53:30;;;;;;;29.63;27.00;;;22.10;35.20;;;;;;5082866;28;20410;-77
2022/08/19 03:55:59;;;;;;;30.27;27.67;;;22.10;35.50;;;;;;5080583;28;20490;-78
2022/08/19 03:58:25;;;;;;;30.33;27.80;;;22.00;35.70;;;;;;5078555;28;20486;-77
2022/08/19 04:00:51;;;;;;;27.40;25.40;;;22.10;35.70;;;;;;5075911;27;20425;-77
2022/08/19 04:03:18;;;;;;;29.23;27.03;;;22.10;35.30;;;;;;5077621;27;20406;-77
2022/08/19 04:05:44;;;;;;;30.50;28.07;;;22.10;34.90;;;;;;5075196;27;20195;-77
2022/08/19 04:08:10;;;;;;;29.27;26.97;;;22.10;35.00;;;;;;5076348;28;20416;-77
2022/08/19 04:10:37;;;;;;;30.23;27.33;;;22.00;35.00;;;;;;5075090;27;20417;-75
2022/08/19 04:13:05;;;;;;;29.67;27.30;;;22.10;35.00;;;;;;5073960;28;20724;-77
2022/08/19 04:15:35;;;;;;;29.10;26.67;;;22.10;34.90;;;;;;5071344;27;20829;-76
2022/08/19 04:18:01;;;;;;;29.87;27.50;;;22.10;35.00;;;;;;5073273;28;20416;-77
2022/08/19 04:20:26;;;;;;;30.60;27.97;;;22.00;34.80;;;;;;5072557;28;20414;-76
2022/08/19 04:22:52;;;;;;;29.60;27.20;;;21.80;35.40;;;;;;5069903;27;20208;-76
2022/08/19 04:25:17;;;;;;;29.97;27.47;;;21.90;35.40;;;;;;5053232;28;20204;-78
2022/08/19 04:27:46;;;;;;;31.47;28.87;;;21.90;35.20;;;;;;5053530;28;20180;-80
2022/08/19 04:30:12;;;;;;;31.60;28.73;;;21.90;35.00;;;;;;5052702;28;20183;-77
2022/08/19 04:32:38;;;;;;;29.83;27.43;;;21.90;34.90;;;;;;5053532;28;20414;-77
2022/08/19 04:35:04;;;;;;;29.97;27.40;;;21.90;35.00;;;;;;5052950;28;20939;-78
2022/08/19 04:37:32;;;;;;;29.53;27.20;;;21.80;35.10;;;;;;5051823;28;20600;-79
2022/08/19 04:42:42;;;;;;;31.13;28.63;;;21.90;35.20;;;;;;5053024;28;20447;-77
2022/08/19 04:45:11;;;;;;;32.13;29.63;;;21.90;35.40;;;;;;5050153;28;20442;-77
2022/08/19 04:47:37;;;;;;;30.17;27.70;;;21.80;35.40;;;;;;5052094;28;20172;-77
2022/08/19 04:50:04;;;;;;;29.40;27.10;;;21.90;36.10;;;;;;5052871;28;20417;-77
2022/08/19 04:52:31;;;;;;;28.90;26.70;;;21.70;36.70;;;;;;5052084;28;20928;-77
2022/08/19 04:54:56;;;;;;;31.77;29.13;;;21.70;36.10;;;;;;5051927;28;20554;-77
2022/08/19 04:57:22;;;;;;;31.60;28.73;;;21.70;36.20;;;;;;5047831;28;20414;-74
2022/08/19 05:14:51;;;;;;;30.60;28.00;;;21.90;35.70;;;;;;5033559;28;20969;-82
2022/08/19 05:35:23;;;;;;;31.67;29.27;;;21.50;37.60;;;;;;4896464;29;20510;-81
2022/08/19 05:45:34;;;;;;;31.77;28.87;;;21.60;36.80;;;;;;4850856;29;20424;-80
2022/08/19 05:49:07;;;;;;;;;;;;;;;;;;;;;
2022/08/19 05:52:15;;;;;;;;;;;;;;;;;;;;;
2022/08/19 06:06:17;;;;;;;31.37;28.80;;;21.70;36.60;;;;;;4852446;29;20530;-81
2022/08/19 06:09:19;;;;;;;;;;;;;;;;;;;;;
2022/08/19 06:12:34;;;;;;;32.07;29.27;;;21.80;36.10;;;;;;4940084;29;20451;-81
2022/08/19 06:28:48;;;;;;;31.60;29.10;;;21.70;36.60;;;;;;5036800;28;20382;-80
2022/08/19 06:39:02;;;;;;;31.17;28.67;;;21.70;37.00;;;;;;5053868;28;20397;-81
2022/08/19 09:29:39;;;;;;;27.00;24.60;;;21.80;40.10;;;;;;5041958;28;20531;-67
2022/08/19 09:32:06;;;;;;;25.47;23.77;;;21.90;40.00;;;;;;5017772;28;20927;-67
2022/08/19 09:34:32;;;;;;;33.47;24.93;;;21.90;39.20;;;;;;5032607;28;20466;-67
2022/08/19 09:36:59;;;;;;;23.50;21.80;;;21.90;39.20;;;;;;5051885;28;20501;-67
2022/08/19 09:39:26;;;;;;;24.80;22.93;;;22.00;39.10;;;;;;5028525;28;20511;-67
2022/08/19 09:41:52;;;;;;;27.03;24.70;;;22.00;38.90;;;;;;5033055;28;20441;-67
2022/08/19 09:44:20;;;;;;;25.20;23.50;;;22.10;38.80;;;;;;5027562;28;20427;-67
2022/08/19 09:46:50;;;;;;;27.67;25.60;;;22.00;38.80;;;;;;5029511;28;20434;-67
2022/08/19 09:49:18;;;;;;;23.87;22.27;;;22.10;38.80;;;;;;5033410;28;20418;-67
2022/08/19 09:51:47;;;;;;;23.50;21.90;;;22.10;38.50;;;;;;5033396;28;20453;-67
2022/08/19 09:54:14;;;;;;;23.53;21.93;;;22.20;38.30;;;;;;5033363;28;20446;-67
2022/08/19 09:56:40;;;;;;;23.67;21.93;;;22.20;38.20;;;;;;5033387;28;20595;-67
2022/08/19 09:59:06;;;;;;;22.97;21.47;;;22.20;38.20;;;;;;5034074;28;20437;-67
2022/08/19 10:01:33;;;;;;;24.33;22.30;;;22.30;37.80;;;;;;5032900;28;20461;-67
2022/08/19 10:04:00;;;;;;;23.87;22.10;;;22.30;37.90;;;;;;5030503;28;20529;-67
2022/08/19 10:06:31;;;;;;;23.33;21.73;;;22.30;38.10;;;;;;5031978;28;20426;-67
2022/08/19 10:08:57;;;;;;;22.53;21.23;;;22.30;37.70;;;;;;5033336;28;20516;-67
2022/08/19 10:11:23;;;;;;;24.23;22.20;;;22.30;37.80;;;;;;5032658;28;20421;-67
2022/08/19 10:13:49;;;;;;;21.33;19.87;;;22.30;37.70;;;;;;5033303;28;20429;-67
2022/08/19 10:16:21;;;;;;;22.20;20.67;;;22.40;37.50;;;;;;5029462;28;20208;-67
2022/08/19 10:18:49;;;;;;;24.10;22.37;;;22.40;37.50;;;;;;5033130;28;20427;-67
2022/08/19 10:21:34;;;;;;;23.17;21.67;;;22.40;37.20;;;;;;5032996;28;20472;-67
2022/08/19 10:24:03;;;;;;;22.40;20.80;;;22.40;37.10;;;;;;5033277;28;20415;-67
2022/08/19 10:26:35;;;;;;;22.50;21.17;;;22.40;37.10;;;;;;5033306;28;20762;-67
2022/08/19 10:29:04;;;;;;;22.90;21.40;;;22.40;37.20;;;;;;5018255;28;20841;-67
2022/08/19 10:31:32;;;;;;;22.90;21.33;;;22.50;37.00;;;;;;5012633;28;20435;-67
2022/08/19 10:34:01;;;;;;;22.17;20.67;;;22.50;36.80;;;;;;5013502;28;20431;-67
2022/08/19 10:36:55;;;;;;;23.23;21.57;;;22.40;37.00;;;;;;5013167;28;20455;-67
2022/08/19 10:39:20;;;;;;;22.37;20.77;;;22.50;36.80;;;;;;5030039;28;20443;-67
2022/08/19 10:41:45;;;;;;;22.73;21.13;;;22.50;36.90;;;;;;5013204;28;20513;-67
2022/08/19 10:44:13;;;;;;;21.87;20.30;;;22.50;36.80;;;;;;5030632;28;20417;-67
2022/08/19 10:46:41;;;;;;;23.17;21.47;;;22.50;36.50;;;;;;5036873;28;20258;-67
2022/08/19 10:49:09;;;;;;;24.30;22.67;;;22.50;36.50;;;;;;5037812;28;20457;-67
2022/08/19 10:54:21;;;;;;;22.00;20.37;;;22.60;36.30;;;;;;5054950;28;20979;-56
2022/08/19 10:56:53;;;;;;;22.27;20.83;;;22.60;35.90;;;;;;5036797;28;20461;-58
2022/08/19 10:59:22;;;;;;;20.60;19.30;;;22.70;35.90;;;;;;5022176;28;20271;-57
2022/08/19 11:01:50;;;;;;;21.17;19.67;;;22.70;35.60;;;;;;5016668;28;20922;-56
2022/08/19 11:04:18;;;;;;;21.47;19.97;;;22.70;35.10;;;;;;5023534;28;21044;-67
2022/08/19 11:06:47;;;;;;;22.47;20.63;;;22.80;35.00;;;;;;5038488;28;20826;-68
2022/08/19 11:09:15;;;;;;;21.17;19.97;;;22.80;34.80;;;;;;5020815;28;20783;-68
2022/08/19 11:11:41;;;;;;;20.57;18.77;;;22.80;34.30;;;;;;5027156;28;20431;-67
2022/08/19 11:14:09;;;;;;;19.87;18.67;;;22.80;34.00;;;;;;5036419;28;20780;-67
2022/08/19 11:16:38;;;;;;;20.60;19.20;;;22.90;33.70;;;;;;5036658;28;20539;-68
2022/08/19 11:19:06;;;;;;;20.50;19.30;;;22.90;34.20;;;;;;5035741;28;20472;-61
2022/08/19 11:29:42;;;;;;;20.50;19.40;;;23.00;33.60;;;;;;4380700;26;20845;-67
2022/08/19 11:32:09;;;;;;;21.70;20.30;;;23.00;33.60;;;;;;5067591;22;20417;-80
2022/08/19 11:34:36;;;;;;;20.60;19.20;;;23.00;33.60;;;;;;5070395;28;20433;-78
2022/08/19 11:37:03;;;;;;;19.70;18.57;;;23.10;33.10;;;;;;5070159;28;20453;-77
2022/08/19 11:39:31;;;;;;;20.43;18.83;;;23.10;32.60;;;;;;5073597;28;21020;-77
2022/08/19 11:42:02;;;;;;;18.37;17.37;;;23.10;32.60;;;;;;5064544;28;20448;-77
2022/08/19 11:44:30;;;;;;;20.23;19.00;;;23.20;32.70;;;;;;5055041;28;20984;-78
2022/08/19 11:46:56;;;;;;;20.77;19.33;;;23.20;31.80;;;;;;5061029;28;20430;-76
2022/08/19 11:49:22;;;;;;;20.10;19.00;;;23.30;31.60;;;;;;5074490;28;20403;-78
2022/08/19 11:51:49;;;;;;;19.70;18.70;;;23.30;31.10;;;;;;5074833;28;20413;-78
2022/08/19 11:54:17;;;;;;;20.17;19.07;;;23.30;30.80;;;;;;5077969;28;20438;-77
2022/08/19 11:56:43;;;;;;;22.00;20.30;;;23.30;30.90;;;;;;5075587;28;20797;-77
2022/08/19 11:59:09;;;;;;;20.33;19.13;;;23.30;30.80;;;;;;5085305;28;20426;-79
2022/08/19 12:01:35;;;;;;;19.23;17.77;;;23.30;30.80;;;;;;5094186;28;20422;-77
2022/08/19 12:04:00;;;;;;;20.10;18.73;;;23.40;30.80;;;;;;5094376;28;20440;-79
2022/08/19 12:06:33;;;;;;;20.03;18.83;;;23.30;30.60;;;;;;5069301;28;20571;-77
2022/08/19 12:09:04;;;;;;;18.40;17.30;;;23.30;30.40;;;;;;5061503;28;20232;-77
2022/08/19 12:11:29;;;;;;;20.73;19.33;;;23.40;30.70;;;;;;5056965;28;20448;-76
2022/08/19 12:13:55;;;;;;;20.50;19.13;;;23.40;30.70;;;;;;5069632;28;20545;-77
2022/08/19 12:16:24;;;;;;;20.10;18.73;;;23.40;30.20;;;;;;5054797;28;20265;-77
2022/08/19 12:18:53;;;;;;;21.07;19.67;;;23.40;30.20;;;;;;5054510;28;20190;-77
2022/08/19 12:21:24;;;;;;;21.00;19.20;;;23.40;30.30;;;;;;5053700;28;20430;-76
2022/08/19 12:23:51;;;;;;;19.37;18.27;;;23.50;30.20;;;;;;5053178;28;20525;-77
2022/08/19 12:26:17;;;;;;;20.13;19.03;;;23.40;30.40;;;;;;5053349;28;20419;-78
2022/08/19 12:28:43;;;;;;;20.37;18.97;;;23.40;30.20;;;;;;5058303;28;20440;-78
2022/08/19 12:31:11;;;;;;;19.67;18.47;;;23.50;29.90;;;;;;5073923;28;20465;-77
2022/08/19 12:33:37;;;;;;;19.87;18.67;;;23.50;29.90;;;;;;5074246;28;20500;-77
2022/08/19 12:36:06;;;;;;;19.40;18.17;;;23.50;29.80;;;;;;5074680;28;20460;-77
2022/08/19 12:38:34;;;;;;;20.33;18.77;;;23.50;29.80;;;;;;5073381;28;21236;-78
2022/08/19 12:40:59;;;;;;;18.83;17.73;;;23.50;29.80;;;;;;5072193;28;20516;-78
2022/08/19 12:43:25;;;;;;;17.13;16.23;;;23.50;29.50;;;;;;5071819;28;20568;-77
2022/08/19 12:45:50;;;;;;;19.47;18.27;;;23.60;29.60;;;;;;5053278;28;20321;-78
2022/08/19 12:48:16;;;;;;;20.70;19.20;;;23.50;30.40;;;;;;5051893;28;20176;-78
2022/08/19 12:50:45;;;;;;;21.87;20.30;;;23.50;31.20;;;;;;5053051;28;20186;-78
2022/08/19 12:53:11;;;;;;;20.23;19.10;;;23.60;31.90;;;;;;5053199;28;20540;-77
2022/08/19 12:55:37;;;;;;;21.27;19.83;;;23.50;31.80;;;;;;5052008;28;20448;-77
2022/08/19 12:58:03;;;;;;;20.10;18.90;;;23.50;32.00;;;;;;5052059;28;20916;-78
2022/08/19 13:00:29;;;;;;;20.03;18.83;;;23.50;31.70;;;;;;5052281;28;20210;-78
2022/08/19 13:02:55;;;;;;;20.70;19.40;;;23.50;31.50;;;;;;5051931;28;20731;-78
2022/08/19 13:05:23;;;;;;;20.77;19.27;;;23.60;31.40;;;;;;5054087;28;20642;-79
2022/08/19 13:07:51;;;;;;;21.57;20.07;;;23.60;31.40;;;;;;5053628;28;20418;-79
2022/08/19 13:10:19;;;;;;;20.87;19.57;;;23.60;32.40;;;;;;5053879;28;20446;-78
2022/08/19 13:12:46;;;;;;;21.17;19.77;;;23.60;32.90;;;;;;5052263;28;20813;-78
2022/08/19 13:15:14;;;;;;;21.90;20.20;;;23.60;33.00;;;;;;5070825;28;20973;-77
2022/08/19 13:17:40;;;;;;;21.80;20.50;;;23.60;32.90;;;;;;5053079;28;20883;-77
2022/08/19 13:20:08;;;;;;;22.63;21.13;;;23.50;32.90;;;;;;5051332;28;20422;-79
2022/08/19 13:22:37;;;;;;;23.47;21.77;;;23.60;33.10;;;;;;5052811;28;20439;-77
2022/08/19 13:25:07;;;;;;;21.83;20.33;;;23.50;33.00;;;;;;5051559;28;20433;-79
2022/08/19 13:27:36;;;;;;;21.37;19.87;;;23.60;33.00;;;;;;5051812;28;20421;-78
2022/08/19 13:35:33;;;;;;;22.23;20.67;;;23.50;33.80;;;;;;5052868;28;20417;-77
2022/08/19 13:38:00;;;;;;;23.03;21.33;;;23.50;33.80;;;;;;5051956;28;20407;-78
2022/08/19 13:40:26;;;;;;;24.70;23.10;;;23.50;33.80;;;;;;5052402;28;20662;-78
2022/08/19 13:42:54;;;;;;;24.40;22.60;;;23.30;38.00;;;;;;5051393;28;20438;-77
2022/08/19 13:45:24;;;;;;;24.30;22.50;;;23.20;38.80;;;;;;5057478;28;20429;-78
2022/08/19 13:47:51;;;;;;;23.50;21.90;;;23.10;38.90;;;;;;5071548;28;20513;-77
2022/08/19 13:50:19;;;;;;;25.47;23.67;;;23.10;39.50;;;;;;5071175;28;20453;-76
2022/08/19 13:52:47;;;;;;;26.27;23.97;;;23.10;39.70;;;;;;5058426;28;20837;-77
2022/08/19 13:55:12;;;;;;;26.97;24.80;;;23.10;40.30;;;;;;5053155;28;20419;-76
2022/08/19 13:57:38;;;;;;;27.63;25.53;;;23.10;41.30;;;;;;5053022;28;20455;-77
2022/08/19 14:00:07;;;;;;;27.60;25.40;;;23.00;41.30;;;;;;5052554;28;20199;-75
2022/08/19 14:02:33;;;;;;;28.23;25.70;;;23.00;41.70;;;;;;5051089;28;20477;-76
2022/08/19 14:04:58;;;;;;;27.00;24.90;;;22.90;42.40;;;;;;5053053;28;20435;-77
2022/08/19 14:07:24;;;;;;;26.70;24.40;;;22.80;44.30;;;;;;5051695;28;20687;-76
2022/08/19 14:09:50;;;;;;;28.70;26.50;;;22.50;46.20;;;;;;5055693;28;20656;-76
2022/08/19 14:12:20;;;;;;;28.90;26.10;;;22.40;48.20;;;;;;5066910;28;20206;-75
2022/08/19 14:14:46;;;;;;;29.20;26.77;;;22.40;49.10;;;;;;5065755;28;20433;-75
2022/08/19 14:17:11;;;;;;;31.60;28.87;;;22.40;50.20;;;;;;5052494;28;20458;-77
2022/08/19 14:19:37;;;;;;;28.23;25.97;;;22.30;48.90;;;;;;5057083;28;20225;-77
2022/08/19 14:22:04;;;;;;;28.00;25.70;;;22.20;48.50;;;;;;5065094;28;20199;-78
2022/08/19 14:24:29;;;;;;;29.17;26.67;;;22.20;48.40;;;;;;5065145;28;20180;-77
2022/08/19 14:26:57;;;;;;;30.17;27.57;;;22.10;48.20;;;;;;5057709;28;20421;-77
2022/08/19 14:29:22;;;;;;;26.63;24.80;;;22.10;48.30;;;;;;5056928;28;20172;-77
2022/08/19 14:31:48;;;;;;;29.80;27.50;;;22.10;48.20;;;;;;5067445;28;20504;-77
2022/08/19 14:34:13;;;;;;;28.87;26.37;;;22.00;48.10;;;;;;5077436;28;20219;-78
2022/08/19 14:36:39;;;;;;;28.60;26.27;;;22.10;48.10;;;;;;5072561;28;20218;-78
2022/08/19 14:39:05;;;;;;;27.00;24.87;;;22.10;47.60;;;;;;5055946;28;20168;-78
2022/08/19 14:41:30;;;;;;;28.87;26.17;;;22.10;47.20;;;;;;5056997;28;20173;-78
2022/08/19 14:43:57;;;;;;;26.83;24.40;;;22.20;46.40;;;;;;5055866;28;20231;-79
2022/08/19 14:46:26;;;;;;;25.67;23.87;;;22.20;45.80;;;;;;5066420;28;20252;-77
2022/08/19 14:48:52;;;;;;;25.83;23.87;;;22.20;45.90;;;;;;5056838;28;20418;-78
2022/08/19 14:51:19;;;;;;;27.50;25.43;;;22.30;45.70;;;;;;5057449;28;20517;-77
2022/08/19 14:53:45;;;;;;;26.80;24.70;;;22.30;45.40;;;;;;5074441;28;20441;-77
2022/08/19 14:56:13;;;;;;;27.87;25.63;;;22.40;45.70;;;;;;5076532;28;20460;-77
2022/08/19 14:58:41;;;;;;;27.77;25.40;;;22.30;45.30;;;;;;5076121;28;20206;-77
2022/08/19 15:01:08;;;;;;;26.13;24.27;;;22.30;45.70;;;;;;5061780;28;20439;-77
2022/08/19 15:03:34;;;;;;;26.23;23.87;;;22.30;45.60;;;;;;5054602;28;20438;-77
2022/08/19 15:06:02;;;;;;;25.80;23.50;;;22.30;45.10;;;;;;5054238;28;20415;-77
2022/08/19 15:08:29;;;;;;;26.17;24.07;;;22.30;45.30;;;;;;5055122;28;20415;-77
2022/08/19 15:10:56;;;;;;;24.93;23.23;;;22.30;44.90;;;;;;5055410;28;20767;-77
2022/08/19 15:13:23;;;;;;;24.63;22.93;;;22.50;44.40;;;;;;5055401;28;20441;-77
2022/08/19 15:15:51;;;;;;;23.20;21.70;;;22.50;44.00;;;;;;5064081;28;20523;-77
2022/08/19 15:18:17;;;;;;;25.30;23.30;;;22.70;44.00;;;;;;5054868;28;20406;-77
2022/08/19 15:20:43;;;;;;;25.43;23.63;;;22.60;43.60;;;;;;5054921;28;20407;-77
2022/08/19 15:23:10;;;;;;;25.40;23.70;;;22.60;43.40;;;;;;5055172;28;20184;-78
2022/08/19 15:25:36;;;;;;;26.30;24.40;;;22.70;43.60;;;;;;5070347;28;20936;-78
2022/08/19 15:28:03;;;;;;;25.53;23.77;;;22.70;43.00;;;;;;5055181;28;20417;-78
2022/08/19 15:30:29;;;;;;;25.50;23.33;;;22.80;42.80;;;;;;5060362;28;20167;-78
2022/08/19 15:32:57;;;;;;;23.47;22.00;;;22.90;42.40;;;;;;5073416;28;20825;-78
2022/08/19 15:35:23;;;;;;;23.47;21.93;;;22.90;41.90;;;;;;5074436;28;20799;-78
2022/08/19 15:37:53;;;;;;;25.10;23.50;;;23.00;41.50;;;;;;5062850;28;20903;-78
2022/08/19 15:40:20;;;;;;;24.87;23.03;;;23.10;40.80;;;;;;5060644;28;20403;-78
2022/08/19 15:42:46;;;;;;;23.17;21.67;;;23.10;40.70;;;;;;5060878;28;20419;-78
2022/08/19 15:45:13;;;;;;;23.57;21.87;;;23.20;40.90;;;;;;5057979;28;20480;-78
2022/08/19 15:47:39;;;;;;;25.70;23.53;;;23.20;40.80;;;;;;5058040;28;20444;-78
2022/08/19 15:50:11;;;;;;;24.03;22.40;;;23.20;40.10;;;;;;5057224;28;20460;-78
2022/08/19 15:52:54;;;;;;;24.53;22.90;;;23.20;39.90;;;;;;5057041;28;20438;-78
2022/08/19 15:55:23;;;;;;;25.53;23.47;;;23.20;40.00;;;;;;5056464;28;20415;-78
2022/08/19 16:08:45;;;;;;;24.73;22.70;;;23.40;39.10;;;;;;5055985;28;20417;-77
2022/08/19 16:11:16;;;;;;;24.50;22.87;;;23.40;38.80;;;;;;5060754;28;20410;-77
2022/08/19 16:13:41;;;;;;;23.77;22.10;;;23.40;39.00;;;;;;5073540;28;20191;-77
2022/08/19 16:16:07;;;;;;;22.73;21.20;;;23.40;38.80;;;;;;5053347;28;20463;-77
2022/08/19 16:18:37;;;;;;;25.30;23.50;;;23.50;38.90;;;;;;5054696;28;20175;-77
2022/08/19 16:21:06;;;;;;;23.47;21.90;;;23.50;38.70;;;;;;5053390;28;20414;-76
2022/08/19 16:23:33;;;;;;;23.67;22.17;;;23.60;38.50;;;;;;5053447;28;20477;-77
2022/08/19 16:25:59;;;;;;;23.90;22.20;;;23.60;37.90;;;;;;5055078;28;20406;-78
2022/08/19 16:28:24;;;;;;;24.13;22.53;;;23.60;37.60;;;;;;5053864;28;20426;-77
2022/08/19 16:30:50;;;;;;;24.90;23.20;;;23.60;38.70;;;;;;5053147;28;20298;-78
2022/08/19 16:33:16;;;;;;;24.97;23.20;;;23.60;39.90;;;;;;5055010;28;20654;-78
2022/08/19 16:35:41;;;;;;;25.60;23.90;;;23.70;40.40;;;;;;5052048;28;20176;-78
2022/08/19 16:38:07;;;;;;;25.10;23.33;;;23.60;40.90;;;;;;5052372;28;20552;-78
2022/08/19 16:40:33;;;;;;;26.63;24.80;;;23.60;40.90;;;;;;5053567;28;20652;-77
2022/08/19 16:42:59;;;;;;;26.00;24.20;;;23.60;41.00;;;;;;5052045;28;20195;-77
2022/08/19 16:45:25;;;;;;;24.77;23.10;;;23.70;41.50;;;;;;5052032;28;20418;-77
2022/08/19 16:47:50;;;;;;;25.10;23.53;;;23.60;42.30;;;;;;5073584;28;20171;-78
2022/08/19 16:50:18;;;;;;;25.00;23.20;;;23.50;42.40;;;;;;5073178;28;20266;-78
2022/08/19 16:52:46;;;;;;;25.83;23.93;;;23.50;42.80;;;;;;5059826;28;20192;-78
2022/08/19 16:55:12;;;;;;;25.43;23.27;;;23.50;42.10;;;;;;5068899;28;20444;-78
2022/08/19 16:57:38;;;;;;;25.77;23.87;;;23.40;41.50;;;;;;5075614;28;20449;-78
2022/08/19 17:00:09;;;;;;;25.03;23.37;;;23.30;41.70;;;;;;5074445;28;20409;-77
2022/08/19 17:02:35;;;;;;;24.53;22.83;;;23.30;42.00;;;;;;5072941;28;20434;-77
2022/08/19 17:05:02;;;;;;;25.27;23.47;;;23.30;42.00;;;;;;5072587;28;20942;-78
2022/08/19 17:07:28;;;;;;;25.00;22.90;;;23.30;41.80;;;;;;5074426;28;20505;-78